• Join FlightAware (Why Join?)
  • Login
  • US Flag 
07:45PM EDT


 

Airport Tracker/Info


-or-


 

Live Flight TrackerFlight Track Log ✈ AWE3827 ✈ 02-May-2013 ✈ KCLT - KBNA

Flight Track Log - Related Links

Times and Time Zones

All times are in EDT time to prevent confusion due to time zone crossing. See the AWE3827 flight status page for this flight to view local times or setup timezone preferences in your user account.

Time Position Orientation Groundspeed Altitude Reporting Facility
EDT Latitude Longitude Course Direction KTS MPH feet Rate Location/Type
09:32AM 35.2331 -80.9594 239° Southwest 161 185 1,600  Level Atlanta Center
09:32AM 35.2628 -80.9761 335° Northwest 192 221 2,400 1,380 Climbing Atlanta Center
09:33AM 35.2958 -81.0489 299° West 290 334 3,900 1,980 Climbing Atlanta Center
09:34AM 35.2500 -81.1122 270° West  Level FlightAware Approximate
09:34AM 35.2772 -81.1386 256° West 292 336 6,500  Level Atlanta Center
09:35AM 35.2660 -81.2128 282° West  Level FlightAware Approximate
09:35AM 35.2694 -81.1617 248° West 282 325 7,100  Level Atlanta Center
09:35AM 35.2522 -81.2308 253° West 288 331 8,500 1,800 Climbing Atlanta Center
09:36AM 35.2292 -81.3041 242° Southwest  Level FlightAware Approximate
09:37AM 35.1870 -81.3926 239° Southwest  Level FlightAware Approximate
09:37AM 35.2214 -81.3439 252° West 307 353 10,700  Level Atlanta Center
09:38AM 35.1922 -81.4517 252° West 327 376 12,300 1,560 Climbing Atlanta Center
09:39AM 35.1633 -81.5592 252° West 327 376 13,900 1,440 Climbing Atlanta Center
09:40AM 35.1364 -81.6819 255° West 359 413 15,200 1,320 Climbing Atlanta Center
09:41AM 35.1244 -81.8194 264° West 373 429 16,600 1,260 Climbing Atlanta Center
09:42AM 35.1142 -81.9517 265° West 388 447 17,800 960 Climbing Atlanta Center
09:43AM 35.1039 -82.0839 265° West 393 452 18,600 960 Climbing Atlanta Center
09:44AM 35.0933 -82.2186 265° West 393 452 19,800 960 Climbing Atlanta Center
09:45AM 35.1181 -82.3300 285° West 380 437 20,600 900 Climbing Atlanta Center
09:46AM 35.1886 -82.4656 303° West 402 463 21,600 780 Climbing Atlanta Center
09:47AM 35.2464 -82.5764 303° West 420 483 22,200 960 Climbing Atlanta Center
09:48AM 35.3083 -82.7000 302° West 420 483 23,600 1,200 Climbing Atlanta Center
09:49AM 35.3658 -82.8214 300° West 420 483 24,600 900 Climbing Atlanta Center
09:50AM 35.4317 -82.9503 302° West 420 483 25,500 660 Climbing Atlanta Center
09:51AM 35.4892 -83.0644 302° West 407 468 26,000 240 Climbing Atlanta Center
09:52AM 35.5483 -83.1836 301° West 402 463 26,000  Level Atlanta Center
09:53AM 35.6097 -83.2981 303° West 402 463 26,000  Level Atlanta Center
09:54AM 35.6667 -83.4150 301° West 402 463 26,000  Level Atlanta Center
09:55AM 35.7233 -83.5297 301° West 402 463 26,000  Level Atlanta Center
09:56AM 35.7822 -83.6444 302° West 402 463 26,000  Level Atlanta Center
09:57AM 35.8389 -83.7622 301° West 402 463 26,000  Level Atlanta Center
09:58AM 35.8933 -83.8747 301° West 397 457 26,000  Level Atlanta Center
09:59AM 35.8894 -84.0081 268° West 377 434 26,000 -420 Level Atlanta Center
10:00AM 35.8664 -84.1386 258° West 377 434 25,200 -1,020 Descending Atlanta Center
10:01AM 35.8433 -84.2692 258° West 384 442 24,000 -1,140 Descending Atlanta Center
10:02AM 35.8219 -84.3972 258° West 394 453 23,000 -540 Descending Atlanta Center
10:03AM 35.8008 -84.5253 259° West 394 453 23,000  Level Atlanta Center
10:04AM 35.7772 -84.6506 257° West 389 448 23,000  Level Atlanta Center
10:05AM 35.7558 -84.7783 258° West 389 448 23,000 -660 Level Atlanta Center
10:06AM 35.7161 -85.0133 258° West 393 452 21,100 -1,080 Descending Memphis Center
10:07AM 35.6925 -85.1425 257° West 393 452 20,000 -600 Descending Memphis Center
10:08AM 35.6725 -85.2664 259° West 387 445 20,000  Level Memphis Center
10:09AM 35.6467 -85.4036 257° West 382 440 20,000 -600 Level Memphis Center
10:10AM 35.6225 -85.5300 257° West 377 434 18,900 -1,500 Descending Memphis Center
10:11AM 35.5983 -85.6567 257° West 382 440 17,000 -1,980 Descending Memphis Center
10:12AM 35.5736 -85.7806 256° West 382 440 15,000 -1,800 Descending Memphis Center
10:13AM 35.5572 -85.8989 260° West 377 434 13,400 -1,020 Descending Memphis Center
10:14AM 35.6128 -85.9956 305° West 332 382 13,000 -240 Descending Memphis Center
10:15AM 35.6803 -86.0839 313° West 338 389 13,000  Level Memphis Center
10:16AM 35.7461 -86.1725 312° West 351 404 13,000  Level Memphis Center
10:17AM 35.8114 -86.2614 312° West 351 404 13,000 -60 Level Memphis Center
10:18AM 35.8789 -86.3475 314° West 346 398 12,900 -720 Descending Memphis Center
10:19AM 35.9400 -86.4267 314° West 335 386 11,600 -1,200 Descending Memphis Center
10:20AM 35.9964 -86.5008 313° West 315 362 10,600 -1,500 Descending Memphis Center
10:22AM 36.1167 -86.5500 342° North 251 289 7,100 -1,680 Descending Nashville TRACON
10:23AM 36.1833 -86.5333 11° North 241 277 5,700 -1,440 Descending Nashville TRACON